sensor_id;sensor_type;location;lat;lon;timestamp;pressure;altitude;pressure_sealevel;temperature;humidity
74631;BME280;63138;55.082;38.804;2022-10-30T00:00:55;98163.41;;;9.13;96.59
74631;BME280;63138;55.082;38.804;2022-10-30T00:03:21;98163.81;;;9.17;96.78
74631;BME280;63138;55.082;38.804;2022-10-30T00:05:48;98162.56;;;9.19;96.55
74631;BME280;63138;55.082;38.804;2022-10-30T00:08:17;98152.78;;;9.18;96.24
74631;BME280;63138;55.082;38.804;2022-10-30T00:10:44;98159.63;;;9.21;96.66
74631;BME280;63138;55.082;38.804;2022-10-30T00:13:11;98158.38;;;9.24;96.51
74631;BME280;63138;55.082;38.804;2022-10-30T00:15:37;98148.81;;;9.21;96.36
74631;BME280;63138;55.082;38.804;2022-10-30T00:18:04;98146.91;;;9.28;96.47
74631;BME280;63138;55.082;38.804;2022-10-30T00:20:30;98157.53;;;9.30;96.43
74631;BME280;63138;55.082;38.804;2022-10-30T00:22:56;98147.13;;;9.27;96.39
74631;BME280;63138;55.082;38.804;2022-10-30T00:25:22;98155.03;;;9.35;96.10
74631;BME280;63138;55.082;38.804;2022-10-30T00:27:48;98149.63;;;9.35;96.42
74631;BME280;63138;55.082;38.804;2022-10-30T00:30:14;98147.31;;;9.38;96.21
74631;BME280;63138;55.082;38.804;2022-10-30T00:32:41;98141.69;;;9.40;96.33
74631;BME280;63138;55.082;38.804;2022-10-30T00:35:10;98145.84;;;9.43;96.05
74631;BME280;63138;55.082;38.804;2022-10-30T00:37:37;98127.47;;;9.45;95.99
74631;BME280;63138;55.082;38.804;2022-10-30T00:40:04;98124.56;;;9.46;95.62
74631;BME280;63138;55.082;38.804;2022-10-30T00:42:31;98130.19;;;9.51;96.07
74631;BME280;63138;55.082;38.804;2022-10-30T00:44:57;98125.38;;;9.53;95.87
74631;BME280;63138;55.082;38.804;2022-10-30T00:47:40;98123.69;;;9.52;95.56
74631;BME280;63138;55.082;38.804;2022-10-30T00:50:11;98119.53;;;9.56;95.78
74631;BME280;63138;55.082;38.804;2022-10-30T00:52:51;98115.75;;;9.57;95.60
74631;BME280;63138;55.082;38.804;2022-10-30T00:55:24;98134.91;;;9.63;95.54
74631;BME280;63138;55.082;38.804;2022-10-30T00:57:51;98126.78;;;9.63;95.45
74631;BME280;63138;55.082;38.804;2022-10-30T01:00:19;98118.25;;;9.66;95.26
74631;BME280;63138;55.082;38.804;2022-10-30T01:02:47;98118.66;;;9.63;95.20
74631;BME280;63138;55.082;38.804;2022-10-30T01:05:16;98124.88;;;9.70;95.37
74631;BME280;63138;55.082;38.804;2022-10-30T01:07:43;98106.53;;;9.72;95.29
74631;BME280;63138;55.082;38.804;2022-10-30T01:10:12;98117.97;;;9.74;95.19
74631;BME280;63138;55.082;38.804;2022-10-30T01:12:39;98109.63;;;9.75;94.95
74631;BME280;63138;55.082;38.804;2022-10-30T01:15:06;98109.44;;;9.77;94.71
74631;BME280;63138;55.082;38.804;2022-10-30T01:20:34;98093.34;;;9.82;94.66
74631;BME280;63138;55.082;38.804;2022-10-30T01:25:57;98092.31;;;9.83;94.69
74631;BME280;63138;55.082;38.804;2022-10-30T01:32:06;98088.31;;;9.86;94.75
74631;BME280;63138;55.082;38.804;2022-10-30T01:34:46;98086.00;;;9.89;94.44
74631;BME280;63138;55.082;38.804;2022-10-30T01:37:37;98082.91;;;9.86;94.80
74631;BME280;63138;55.082;38.804;2022-10-30T01:40:12;98081.19;;;9.91;94.67
74631;BME280;63138;55.082;38.804;2022-10-30T01:42:43;98081.81;;;9.93;94.59
74631;BME280;63138;55.082;38.804;2022-10-30T01:45:45;98070.97;;;9.93;94.42
74631;BME280;63138;55.082;38.804;2022-10-30T01:50:58;98074.28;;;9.95;94.43
74631;BME280;63138;55.082;38.804;2022-10-30T01:56:19;98072.22;;;9.98;94.41
74631;BME280;63138;55.082;38.804;2022-10-30T02:01:31;98055.47;;;10.01;94.18
74631;BME280;63138;55.082;38.804;2022-10-30T02:04:01;98055.69;;;9.99;93.82
74631;BME280;63138;55.082;38.804;2022-10-30T02:06:27;98062.56;;;10.02;93.84
74631;BME280;63138;55.082;38.804;2022-10-30T02:08:54;98068.22;;;10.00;94.03
74631;BME280;63138;55.082;38.804;2022-10-30T02:11:22;98070.09;;;10.00;93.68
74631;BME280;63138;55.082;38.804;2022-10-30T02:13:52;98068.63;;;9.97;93.76
74631;BME280;63138;55.082;38.804;2022-10-30T02:16:19;98050.94;;;9.94;93.41
74631;BME280;63138;55.082;38.804;2022-10-30T02:18:45;98064.91;;;9.98;93.62
74631;BME280;63138;55.082;38.804;2022-10-30T02:21:11;98062.22;;;9.91;93.57
74631;BME280;63138;55.082;38.804;2022-10-30T02:23:37;98050.59;;;9.84;93.66
74631;BME280;63138;55.082;38.804;2022-10-30T02:26:04;98061.22;;;9.86;94.07
74631;BME280;63138;55.082;38.804;2022-10-30T02:28:30;98041.84;;;9.82;93.74
74631;BME280;63138;55.082;38.804;2022-10-30T02:30:55;98051.00;;;9.81;93.94
74631;BME280;63138;55.082;38.804;2022-10-30T02:33:23;98025.19;;;9.79;94.19
74631;BME280;63138;55.082;38.804;2022-10-30T02:35:50;98025.81;;;9.74;94.24
74631;BME280;63138;55.082;38.804;2022-10-30T02:38:17;98041.44;;;9.79;94.24
74631;BME280;63138;55.082;38.804;2022-10-30T02:40:44;98036.25;;;9.77;94.08
74631;BME280;63138;55.082;38.804;2022-10-30T02:43:10;98039.78;;;9.77;94.39
74631;BME280;63138;55.082;38.804;2022-10-30T02:45:36;98034.34;;;9.77;94.23
74631;BME280;63138;55.082;38.804;2022-10-30T02:48:02;98038.75;;;9.79;94.47
74631;BME280;63138;55.082;38.804;2022-10-30T02:50:29;98039.53;;;9.86;94.07
74631;BME280;63138;55.082;38.804;2022-10-30T02:52:54;98024.53;;;9.83;94.00
74631;BME280;63138;55.082;38.804;2022-10-30T02:55:21;98031.34;;;9.92;93.93
74631;BME280;63138;55.082;38.804;2022-10-30T02:57:47;98020.06;;;9.95;93.83
74631;BME280;63138;55.082;38.804;2022-10-30T03:00:13;98027.16;;;9.97;93.91
74631;BME280;63138;55.082;38.804;2022-10-30T03:02:39;98028.38;;;10.01;93.57
74631;BME280;63138;55.082;38.804;2022-10-30T03:05:05;98028.38;;;10.01;93.87
74631;BME280;63138;55.082;38.804;2022-10-30T03:07:31;98034.19;;;10.04;93.42
74631;BME280;63138;55.082;38.804;2022-10-30T03:09:57;98023.94;;;10.06;93.41
74631;BME280;63138;55.082;38.804;2022-10-30T03:12:23;98033.31;;;10.10;93.07
74631;BME280;63138;55.082;38.804;2022-10-30T03:14:51;98031.59;;;10.16;93.03
74631;BME280;63138;55.082;38.804;2022-10-30T03:17:17;98026.19;;;10.16;92.88
74631;BME280;63138;55.082;38.804;2022-10-30T03:19:43;98029.50;;;10.18;92.52
74631;BME280;63138;55.082;38.804;2022-10-30T03:22:09;98026.41;;;10.14;92.94
74631;BME280;63138;55.082;38.804;2022-10-30T03:24:36;98028.66;;;10.18;92.60
74631;BME280;63138;55.082;38.804;2022-10-30T03:27:02;98030.53;;;10.17;92.70
74631;BME280;63138;55.082;38.804;2022-10-30T03:29:28;98032.22;;;10.18;92.75
74631;BME280;63138;55.082;38.804;2022-10-30T03:31:54;98018.66;;;10.18;92.23
74631;BME280;63138;55.082;38.804;2022-10-30T03:34:22;98006.97;;;10.18;92.38
74631;BME280;63138;55.082;38.804;2022-10-30T03:36:48;98032.59;;;10.22;92.53
74631;BME280;63138;55.082;38.804;2022-10-30T03:39:14;98010.91;;;10.22;91.61
74631;BME280;63138;55.082;38.804;2022-10-30T03:41:42;98013.59;;;10.22;91.48
74631;BME280;63138;55.082;38.804;2022-10-30T03:44:09;98021.09;;;10.26;90.85
74631;BME280;63138;55.082;38.804;2022-10-30T03:46:34;98021.09;;;10.26;90.43
74631;BME280;63138;55.082;38.804;2022-10-30T03:49:14;98007.69;;;10.31;88.55
74631;BME280;63138;55.082;38.804;2022-10-30T03:51:40;98029.41;;;10.31;88.32
74631;BME280;63138;55.082;38.804;2022-10-30T03:54:06;98031.28;;;10.31;88.16
74631;BME280;63138;55.082;38.804;2022-10-30T03:56:32;98013.56;;;10.28;87.84
74631;BME280;63138;55.082;38.804;2022-10-30T03:58:58;98031.91;;;10.33;86.85
74631;BME280;63138;55.082;38.804;2022-10-30T04:01:31;98019.22;;;10.27;87.12
74631;BME280;63138;55.082;38.804;2022-10-30T04:03:58;98022.94;;;10.26;86.99
74631;BME280;63138;55.082;38.804;2022-10-30T04:06:24;98029.22;;;10.26;86.64
74631;BME280;63138;55.082;38.804;2022-10-30T04:08:53;98019.63;;;10.24;87.13
74631;BME280;63138;55.082;38.804;2022-10-30T04:11:19;98020.72;;;10.23;86.97
74631;BME280;63138;55.082;38.804;2022-10-30T04:13:45;98022.56;;;10.22;86.88
74631;BME280;63138;55.082;38.804;2022-10-30T04:16:11;98014.44;;;10.22;87.14
74631;BME280;63138;55.082;38.804;2022-10-30T04:18:37;98017.34;;;10.21;87.13
74631;BME280;63138;55.082;38.804;2022-10-30T04:21:04;98016.31;;;10.22;86.51
74631;BME280;63138;55.082;38.804;2022-10-30T04:23:32;98019.69;;;10.17;86.48
74631;BME280;63138;55.082;38.804;2022-10-30T04:25:59;98028.00;;;10.22;86.33
74631;BME280;63138;55.082;38.804;2022-10-30T04:28:26;98015.31;;;10.16;85.83
74631;BME280;63138;55.082;38.804;2022-10-30T04:30:52;98030.78;;;10.16;84.81
74631;BME280;63138;55.082;38.804;2022-10-30T04:33:18;98030.16;;;10.13;84.17
74631;BME280;63138;55.082;38.804;2022-10-30T04:35:44;98028.75;;;10.04;83.96
74631;BME280;63138;55.082;38.804;2022-10-30T04:38:15;98020.50;;;9.92;83.49
74631;BME280;63138;55.082;38.804;2022-10-30T04:40:43;98032.44;;;9.85;83.52
74631;BME280;63138;55.082;38.804;2022-10-30T04:43:11;98024.38;;;9.78;83.60
74631;BME280;63138;55.082;38.804;2022-10-30T04:45:38;98034.41;;;9.71;82.90
74631;BME280;63138;55.082;38.804;2022-10-30T04:48:06;98021.94;;;9.63;82.49
74631;BME280;63138;55.082;38.804;2022-10-30T04:50:33;98030.13;;;9.56;82.75
74631;BME280;63138;55.082;38.804;2022-10-30T04:53:01;98035.13;;;9.53;82.30
74631;BME280;63138;55.082;38.804;2022-10-30T04:55:28;98032.03;;;9.49;82.02
74631;BME280;63138;55.082;38.804;2022-10-30T04:57:55;98040.97;;;9.50;82.01
74631;BME280;63138;55.082;38.804;2022-10-30T05:00:21;98045.75;;;9.54;81.31
74631;BME280;63138;55.082;38.804;2022-10-30T05:02:48;98029.44;;;9.61;80.90
74631;BME280;63138;55.082;38.804;2022-10-30T05:05:14;98047.81;;;9.59;81.05
74631;BME280;63138;55.082;38.804;2022-10-30T05:07:40;98053.22;;;9.59;81.38
74631;BME280;63138;55.082;38.804;2022-10-30T05:10:10;98048.03;;;9.57;81.17
74631;BME280;63138;55.082;38.804;2022-10-30T05:12:37;98057.81;;;9.59;80.79
74631;BME280;63138;55.082;38.804;2022-10-30T05:15:04;98050.31;;;9.61;80.46
74631;BME280;63138;55.082;38.804;2022-10-30T05:17:33;98062.19;;;9.60;79.37
74631;BME280;63138;55.082;38.804;2022-10-30T05:19:59;98056.34;;;9.63;78.75
74631;BME280;63138;55.082;38.804;2022-10-30T05:22:25;98033.44;;;9.59;78.60
74631;BME280;63138;55.082;38.804;2022-10-30T05:24:51;98047.41;;;9.55;78.63
74631;BME280;63138;55.082;38.804;2022-10-30T05:27:17;98055.84;;;10.11;77.64
74631;BME280;63138;55.082;38.804;2022-10-30T05:29:43;98035.94;;;10.49;75.94
74631;BME280;63138;55.082;38.804;2022-10-30T05:32:09;98055.84;;;11.23;71.84
74631;BME280;63138;55.082;38.804;2022-10-30T05:34:44;98051.63;;;11.76;69.68
74631;BME280;63138;55.082;38.804;2022-10-30T05:37:11;98049.34;;;11.92;68.30
74631;BME280;63138;55.082;38.804;2022-10-30T05:39:37;98054.16;;;12.20;66.99
74631;BME280;63138;55.082;38.804;2022-10-30T05:42:09;98061.09;;;12.70;65.43
74631;BME280;63138;55.082;38.804;2022-10-30T05:44:41;98047.81;;;12.61;64.40
74631;BME280;63138;55.082;38.804;2022-10-30T05:47:10;98053.38;;;13.14;62.65
74631;BME280;63138;55.082;38.804;2022-10-30T05:49:36;98071.88;;;12.76;64.00
74631;BME280;63138;55.082;38.804;2022-10-30T05:52:06;98063.06;;;12.27;65.38
74631;BME280;63138;55.082;38.804;2022-10-30T05:54:31;98072.78;;;11.74;66.57
74631;BME280;63138;55.082;38.804;2022-10-30T05:57:18;98063.38;;;11.58;67.56
74631;BME280;63138;55.082;38.804;2022-10-30T05:59:44;98076.59;;;11.55;67.44
74631;BME280;63138;55.082;38.804;2022-10-30T06:02:10;98068.00;;;11.02;68.83
74631;BME280;63138;55.082;38.804;2022-10-30T06:04:37;98057.75;;;10.86;69.81
74631;BME280;63138;55.082;38.804;2022-10-30T06:07:09;98053.31;;;10.66;70.59
74631;BME280;63138;55.082;38.804;2022-10-30T06:09:35;98073.44;;;11.02;70.48
74631;BME280;63138;55.082;38.804;2022-10-30T06:12:10;98055.16;;;11.95;66.72
74631;BME280;63138;55.082;38.804;2022-10-30T06:14:55;98061.72;;;11.88;66.40
74631;BME280;63138;55.082;38.804;2022-10-30T06:17:21;98067.25;;;12.53;64.79
74631;BME280;63138;55.082;38.804;2022-10-30T06:20:10;98066.28;;;11.75;67.18
74631;BME280;63138;55.082;38.804;2022-10-30T06:23:04;98066.97;;;11.22;68.41
74631;BME280;63138;55.082;38.804;2022-10-30T06:25:42;98069.97;;;10.95;69.35
74631;BME280;63138;55.082;38.804;2022-10-30T06:28:12;98079.13;;;10.76;70.41
74631;BME280;63138;55.082;38.804;2022-10-30T06:30:40;98080.34;;;10.80;70.74
74631;BME280;63138;55.082;38.804;2022-10-30T06:33:06;98064.63;;;10.63;70.98
74631;BME280;63138;55.082;38.804;2022-10-30T06:35:35;98069.00;;;10.64;71.42
74631;BME280;63138;55.082;38.804;2022-10-30T06:38:02;98062.19;;;10.55;70.71
74631;BME280;63138;55.082;38.804;2022-10-30T06:40:39;98070.19;;;10.50;70.89
74631;BME280;63138;55.082;38.804;2022-10-30T06:43:38;98069.06;;;10.26;71.49
74631;BME280;63138;55.082;38.804;2022-10-30T06:46:25;98067.56;;;10.05;72.09
74631;BME280;63138;55.082;38.804;2022-10-30T06:48:51;98062.56;;;10.02;72.89
74631;BME280;63138;55.082;38.804;2022-10-30T06:51:18;98055.09;;;9.97;73.00
74631;BME280;63138;55.082;38.804;2022-10-30T06:53:46;98051.22;;;10.11;72.63
74631;BME280;63138;55.082;38.804;2022-10-30T06:56:35;98045.03;;;10.29;71.58
74631;BME280;63138;55.082;38.804;2022-10-30T06:59:20;98045.44;;;11.02;69.45
74631;BME280;63138;55.082;38.804;2022-10-30T07:02:07;98044.88;;;11.48;66.92
74631;BME280;63138;55.082;38.804;2022-10-30T07:04:47;98025.94;;;11.91;65.78
74631;BME280;63138;55.082;38.804;2022-10-30T07:07:14;98033.94;;;11.85;65.06
74631;BME280;63138;55.082;38.804;2022-10-30T07:09:40;98041.47;;;12.02;63.88
74631;BME280;63138;55.082;38.804;2022-10-30T07:12:07;98034.78;;;12.40;62.77
74631;BME280;63138;55.082;38.804;2022-10-30T07:14:39;98042.84;;;12.58;61.63
74631;BME280;63138;55.082;38.804;2022-10-30T07:17:24;98029.47;;;13.04;60.45
74631;BME280;63138;55.082;38.804;2022-10-30T07:19:54;98037.59;;;13.16;60.26
74631;BME280;63138;55.082;38.804;2022-10-30T07:22:20;98040.88;;;12.89;60.30
74631;BME280;63138;55.082;38.804;2022-10-30T07:24:50;98037.31;;;12.53;61.50
74631;BME280;63138;55.082;38.804;2022-10-30T07:27:25;98044.28;;;12.61;61.42
74631;BME280;63138;55.082;38.804;2022-10-30T07:30:05;98029.22;;;12.35;61.03
74631;BME280;63138;55.082;38.804;2022-10-30T07:32:39;98036.53;;;12.11;61.03
74631;BME280;63138;55.082;38.804;2022-10-30T07:35:31;98022.47;;;11.83;61.71
74631;BME280;63138;55.082;38.804;2022-10-30T07:38:27;98027.75;;;11.48;62.08
74631;BME280;63138;55.082;38.804;2022-10-30T07:41:01;98041.75;;;11.33;62.53
74631;BME280;63138;55.082;38.804;2022-10-30T07:43:46;98044.00;;;10.81;64.61
74631;BME280;63138;55.082;38.804;2022-10-30T07:46:41;98034.03;;;10.75;65.20
74631;BME280;63138;55.082;38.804;2022-10-30T07:49:13;98052.47;;;10.66;64.86
74631;BME280;63138;55.082;38.804;2022-10-30T07:51:46;98055.28;;;10.34;66.04
74631;BME280;63138;55.082;38.804;2022-10-30T07:54:13;98055.72;;;10.31;66.50
74631;BME280;63138;55.082;38.804;2022-10-30T07:56:39;98037.97;;;10.03;66.98
74631;BME280;63138;55.082;38.804;2022-10-30T07:59:17;98050.38;;;9.86;67.63
74631;BME280;63138;55.082;38.804;2022-10-30T08:02:16;98035.88;;;9.67;68.50
74631;BME280;63138;55.082;38.804;2022-10-30T08:05:11;98049.88;;;9.64;69.06
74631;BME280;63138;55.082;38.804;2022-10-30T08:07:56;98050.63;;;10.41;66.75
74631;BME280;63138;55.082;38.804;2022-10-30T08:10:23;98033.38;;;10.79;65.05
74631;BME280;63138;55.082;38.804;2022-10-30T08:12:49;98030.56;;;11.23;63.52
74631;BME280;63138;55.082;38.804;2022-10-30T08:15:16;98033.72;;;11.57;63.35
74631;BME280;63138;55.082;38.804;2022-10-30T08:17:47;98024.88;;;11.61;62.93
74631;BME280;63138;55.082;38.804;2022-10-30T08:20:15;98020.13;;;11.87;62.69
74631;BME280;63138;55.082;38.804;2022-10-30T08:22:47;98012.34;;;11.91;61.39
74631;BME280;63138;55.082;38.804;2022-10-30T08:25:14;98031.06;;;11.80;61.78
74631;BME280;63138;55.082;38.804;2022-10-30T08:28:05;98030.63;;;12.14;60.89
74631;BME280;63138;55.082;38.804;2022-10-30T08:30:35;98025.75;;;12.04;59.65
74631;BME280;63138;55.082;38.804;2022-10-30T08:33:10;98022.16;;;11.92;60.08
74631;BME280;63138;55.082;38.804;2022-10-30T08:35:57;98021.03;;;12.11;60.01
74631;BME280;63138;55.082;38.804;2022-10-30T08:38:25;98015.25;;;12.31;59.41
74631;BME280;63138;55.082;38.804;2022-10-30T08:41:12;98024.56;;;12.00;60.31
74631;BME280;63138;55.082;38.804;2022-10-30T08:43:47;98023.16;;;12.09;59.27
74631;BME280;63138;55.082;38.804;2022-10-30T08:46:13;97997.31;;;11.58;60.27
74631;BME280;63138;55.082;38.804;2022-10-30T08:48:39;98021.28;;;11.31;61.98
74631;BME280;63138;55.082;38.804;2022-10-30T08:51:05;98016.31;;;11.27;62.33
74631;BME280;63138;55.082;38.804;2022-10-30T08:53:40;98029.28;;;11.07;62.46
74631;BME280;63138;55.082;38.804;2022-10-30T08:56:10;98028.91;;;10.85;63.08
74631;BME280;63138;55.082;38.804;2022-10-30T08:59:05;98018.81;;;10.74;63.70
74631;BME280;63138;55.082;38.804;2022-10-30T09:01:33;98016.84;;;10.81;63.05
74631;BME280;63138;55.082;38.804;2022-10-30T09:04:19;98014.09;;;10.62;62.23
74631;BME280;63138;55.082;38.804;2022-10-30T09:07:04;98026.00;;;10.43;61.63
74631;BME280;63138;55.082;38.804;2022-10-30T09:09:38;98004.78;;;10.33;61.17
74631;BME280;63138;55.082;38.804;2022-10-30T09:12:05;98023.16;;;10.24;61.85
74631;BME280;63138;55.082;38.804;2022-10-30T09:14:38;98019.00;;;10.28;61.33
74631;BME280;63138;55.082;38.804;2022-10-30T09:17:06;98018.22;;;10.21;61.67
74631;BME280;63138;55.082;38.804;2022-10-30T09:19:34;98011.06;;;10.02;61.83
74631;BME280;63138;55.082;38.804;2022-10-30T09:22:00;98018.59;;;10.00;62.27
74631;BME280;63138;55.082;38.804;2022-10-30T09:24:27;98012.19;;;9.87;61.96
74631;BME280;63138;55.082;38.804;2022-10-30T09:26:54;98026.00;;;9.79;62.44
74631;BME280;63138;55.082;38.804;2022-10-30T09:29:23;98009.41;;;9.69;62.49
74631;BME280;63138;55.082;38.804;2022-10-30T09:31:58;98024.00;;;9.68;62.25
74631;BME280;63138;55.082;38.804;2022-10-30T09:34:26;98022.84;;;9.50;61.86
74631;BME280;63138;55.082;38.804;2022-10-30T09:37:06;98016.00;;;9.41;61.37
74631;BME280;63138;55.082;38.804;2022-10-30T09:39:35;98009.97;;;9.39;61.22
74631;BME280;63138;55.082;38.804;2022-10-30T09:45:06;98002.44;;;9.48;60.50
74631;BME280;63138;55.082;38.804;2022-10-30T09:53:59;98003.56;;;9.27;59.15
74631;BME280;63138;55.082;38.804;2022-10-30T09:56:39;98018.78;;;9.28;58.97
74631;BME280;63138;55.082;38.804;2022-10-30T10:02:18;98014.53;;;9.45;58.92
74631;BME280;63138;55.082;38.804;2022-10-30T10:04:53;98011.88;;;9.32;57.68
74631;BME280;63138;55.082;38.804;2022-10-30T10:08:03;97988.59;;;9.24;57.51
74631;BME280;63138;55.082;38.804;2022-10-30T10:10:59;97999.72;;;9.09;57.74
74631;BME280;63138;55.082;38.804;2022-10-30T10:13:54;97987.84;;;9.04;58.59
74631;BME280;63138;55.082;38.804;2022-10-30T10:16:30;97977.06;;;8.90;58.13
74631;BME280;63138;55.082;38.804;2022-10-30T10:19:19;97972.94;;;8.88;58.50
74631;BME280;63138;55.082;38.804;2022-10-30T10:21:50;97983.53;;;8.89;58.05
74631;BME280;63138;55.082;38.804;2022-10-30T10:24:22;97985.41;;;8.89;58.50
74631;BME280;63138;55.082;38.804;2022-10-30T10:29:41;97997.84;;;9.10;57.79
74631;BME280;63138;55.082;38.804;2022-10-30T10:40:57;97985.66;;;8.80;59.03
74631;BME280;63138;55.082;38.804;2022-10-30T10:51:38;97981.06;;;8.88;59.11
74631;BME280;63138;55.082;38.804;2022-10-30T10:54:36;97973.97;;;8.87;59.43
74631;BME280;63138;55.082;38.804;2022-10-30T10:57:06;97981.66;;;8.90;59.30
74631;BME280;63138;55.082;38.804;2022-10-30T10:59:42;97974.59;;;8.82;59.65
74631;BME280;63138;55.082;38.804;2022-10-30T11:04:44;97962.38;;;8.66;58.29
74631;BME280;63138;55.082;38.804;2022-10-30T11:07:23;97960.72;;;8.58;59.09
74631;BME280;63138;55.082;38.804;2022-10-30T11:09:53;97964.09;;;8.54;59.53
74631;BME280;63138;55.082;38.804;2022-10-30T11:12:25;97959.91;;;8.51;60.17
74631;BME280;63138;55.082;38.804;2022-10-30T11:14:52;97950.16;;;8.44;60.07
74631;BME280;63138;55.082;38.804;2022-10-30T11:20:02;97957.00;;;8.39;60.23
74631;BME280;63138;55.082;38.804;2022-10-30T11:22:39;97967.63;;;8.34;60.70
74631;BME280;63138;55.082;38.804;2022-10-30T11:25:23;97962.81;;;8.30;61.92
74631;BME280;63138;55.082;38.804;2022-10-30T11:27:55;97956.81;;;8.28;62.04
74631;BME280;63138;55.082;38.804;2022-10-30T11:30:23;97967.63;;;8.28;62.95
74631;BME280;63138;55.082;38.804;2022-10-30T11:32:50;97960.13;;;8.30;63.72
74631;BME280;63138;55.082;38.804;2022-10-30T11:35:18;97925.19;;;8.28;63.85
74631;BME280;63138;55.082;38.804;2022-10-30T11:38:10;97953.06;;;8.29;63.68
74631;BME280;63138;55.082;38.804;2022-10-30T11:40:37;97937.47;;;8.24;62.91
74631;BME280;63138;55.082;38.804;2022-10-30T11:43:03;97955.38;;;8.25;62.09
74631;BME280;63138;55.082;38.804;2022-10-30T11:45:32;97953.69;;;8.17;62.81
74631;BME280;63138;55.082;38.804;2022-10-30T11:48:01;97954.31;;;8.06;61.32
74631;BME280;63138;55.082;38.804;2022-10-30T11:50:30;97929.16;;;7.92;61.36
74631;BME280;63138;55.082;38.804;2022-10-30T11:53:30;97967.63;;;7.68;62.89
74631;BME280;63138;55.082;38.804;2022-10-30T11:56:00;97970.31;;;7.47;62.39
74631;BME280;63138;55.082;38.804;2022-10-30T11:58:33;97954.69;;;7.36;60.65
74631;BME280;63138;55.082;38.804;2022-10-30T12:01:12;97973.16;;;7.33;59.54
74631;BME280;63138;55.082;38.804;2022-10-30T12:03:40;97965.66;;;7.21;58.36
74631;BME280;63138;55.082;38.804;2022-10-30T12:06:24;97959.63;;;7.19;58.97
74631;BME280;63138;55.082;38.804;2022-10-30T12:09:03;97972.91;;;7.14;58.75
74631;BME280;63138;55.082;38.804;2022-10-30T12:11:34;97977.69;;;7.12;58.42
74631;BME280;63138;55.082;38.804;2022-10-30T12:14:01;98001.13;;;7.05;57.79
74631;BME280;63138;55.082;38.804;2022-10-30T12:16:29;98003.56;;;7.00;57.95
74631;BME280;63138;55.082;38.804;2022-10-30T12:21:29;97999.97;;;6.79;56.83
74631;BME280;63138;55.082;38.804;2022-10-30T12:23:59;98002.03;;;6.77;56.90
74631;BME280;63138;55.082;38.804;2022-10-30T12:26:33;98023.13;;;6.67;56.03
74631;BME280;63138;55.082;38.804;2022-10-30T12:29:02;98014.97;;;6.54;54.04
74631;BME280;63138;55.082;38.804;2022-10-30T12:31:34;98029.16;;;6.41;53.78
74631;BME280;63138;55.082;38.804;2022-10-30T12:34:40;97981.41;;;6.28;53.63
74631;BME280;63138;55.082;38.804;2022-10-30T12:37:13;98009.91;;;6.16;53.73
74631;BME280;63138;55.082;38.804;2022-10-30T12:40:18;98017.63;;;6.19;53.33
74631;BME280;63138;55.082;38.804;2022-10-30T12:42:53;98019.81;;;6.08;53.09
74631;BME280;63138;55.082;38.804;2022-10-30T12:45:34;98013.53;;;6.01;53.43
74631;BME280;63138;55.082;38.804;2022-10-30T12:48:07;98033.81;;;5.97;53.66
74631;BME280;63138;55.082;38.804;2022-10-30T12:50:49;98041.16;;;5.88;54.25
74631;BME280;63138;55.082;38.804;2022-10-30T12:56:03;98020.69;;;5.72;54.86
74631;BME280;63138;55.082;38.804;2022-10-30T13:04:09;98024.22;;;5.51;56.13
74631;BME280;63138;55.082;38.804;2022-10-30T13:07:01;98027.47;;;5.47;56.91
74631;BME280;63138;55.082;38.804;2022-10-30T13:09:39;98032.59;;;5.42;56.24
74631;BME280;63138;55.082;38.804;2022-10-30T13:12:11;98034.38;;;5.34;56.41
74631;BME280;63138;55.082;38.804;2022-10-30T13:14:46;98037.66;;;5.30;56.81
74631;BME280;63138;55.082;38.804;2022-10-30T13:17:14;98045.00;;;5.21;57.25
74631;BME280;63138;55.082;38.804;2022-10-30T13:19:42;98043.25;;;5.13;56.58
74631;BME280;63138;55.082;38.804;2022-10-30T13:22:30;98058.78;;;5.11;57.41
74631;BME280;63138;55.082;38.804;2022-10-30T13:28:24;98065.06;;;5.04;57.25
74631;BME280;63138;55.082;38.804;2022-10-30T13:34:00;98075.66;;;4.90;57.95
74631;BME280;63138;55.082;38.804;2022-10-30T13:36:37;98068.13;;;4.86;56.97
74631;BME280;63138;55.082;38.804;2022-10-30T13:42:12;98067.03;;;4.80;57.00
74631;BME280;63138;55.082;38.804;2022-10-30T13:50:30;98076.22;;;4.71;56.97
74631;BME280;63138;55.082;38.804;2022-10-30T13:53:00;98080.75;;;4.70;57.65
74631;BME280;63138;55.082;38.804;2022-10-30T13:55:33;98081.28;;;4.66;57.50
74631;BME280;63138;55.082;38.804;2022-10-30T14:09:07;98085.50;;;4.68;56.83
74631;BME280;63138;55.082;38.804;2022-10-30T14:11:37;98080.47;;;4.65;57.54
74631;BME280;63138;55.082;38.804;2022-10-30T14:17:09;98098.72;;;4.55;58.11
74631;BME280;63138;55.082;38.804;2022-10-30T14:22:30;98095.25;;;4.46;58.49
74631;BME280;63138;55.082;38.804;2022-10-30T14:24:57;98088.59;;;4.42;59.00
74631;BME280;63138;55.082;38.804;2022-10-30T14:27:32;98082.94;;;4.37;59.10
74631;BME280;63138;55.082;38.804;2022-10-30T14:29:59;98082.63;;;4.32;59.67
74631;BME280;63138;55.082;38.804;2022-10-30T14:39:50;98084.50;;;4.31;59.74
74631;BME280;63138;55.082;38.804;2022-10-30T14:58:42;98088.88;;;4.47;60.33
74631;BME280;63138;55.082;38.804;2022-10-30T15:12:04;98179.03;;;1.78;88.63
74631;BME280;63138;55.082;38.804;2022-10-30T15:14:41;98173.94;;;0.55;92.67
74631;BME280;63138;55.082;38.804;2022-10-30T15:17:18;98203.59;;;0.97;98.84
74631;BME280;63138;55.082;38.804;2022-10-30T15:19:47;98199.22;;;0.87;100.00
74631;BME280;63138;55.082;38.804;2022-10-30T15:22:19;98169.94;;;0.78;100.00
74631;BME280;63138;55.082;38.804;2022-10-30T15:24:47;98183.59;;;0.74;100.00
74631;BME280;63138;55.082;38.804;2022-10-30T15:27:17;98189.09;;;0.73;100.00
74631;BME280;63138;55.082;38.804;2022-10-30T15:29:49;98190.25;;;0.70;100.00
74631;BME280;63138;55.082;38.804;2022-10-30T15:32:18;98197.25;;;0.71;100.00